Time;durP1;ratioP1;P1;durP2;ratioP2;P2;SDS_P1;SDS_P2;PMS_P1;PMS_P2;Temp;Humidity;BMP_temperature;BMP_pressure;BME280_temperature;BME280_humidity;BME280_pressure;Samples;Min_cycle;Max_cycle;Signal;HPM_P1;HPM_P2
2022/07/16 00:01:25;;;;;;;5.18;3.28;;;15.00;99.90;;;;;;5048944;28;20068;-69
2022/07/16 00:04:01;;;;;;;6.55;3.47;;;15.10;99.90;;;;;;5056043;28;20126;-71
2022/07/16 00:06:28;;;;;;;6.38;3.28;;;15.20;99.90;;;;;;5054282;28;20044;-69
2022/07/16 00:08:55;;;;;;;8.48;4.13;;;15.10;99.90;;;;;;5055772;28;20032;-70
2022/07/16 00:11:22;;;;;;;6.53;5.38;;;15.10;99.90;;;;;;5050481;28;20082;-69
2022/07/16 00:13:48;;;;;;;11.55;5.32;;;15.00;99.90;;;;;;5050526;28;20622;-68
2022/07/16 00:16:14;;;;;;;11.10;6.57;;;14.80;99.90;;;;;;5036171;28;20048;-69
2022/07/16 00:21:25;;;;;;;11.43;6.95;;;14.70;99.90;;;;;;5048050;28;20078;-71
2022/07/16 00:23:51;;;;;;;10.68;7.82;;;14.70;99.90;;;;;;5054772;28;20056;-67
2022/07/16 00:26:17;;;;;;;12.35;6.88;;;14.60;99.90;;;;;;5056442;28;20043;-68
2022/07/16 00:28:43;;;;;;;13.32;8.23;;;14.60;99.90;;;;;;5049856;28;20044;-70
2022/07/16 00:31:09;;;;;;;14.55;8.00;;;14.70;99.90;;;;;;5050543;28;20316;-68
2022/07/16 00:33:34;;;;;;;11.60;8.05;;;14.70;99.90;;;;;;5052362;28;20043;-71
2022/07/16 00:36:00;;;;;;;13.77;7.45;;;14.60;99.90;;;;;;5055182;28;20194;-69
2022/07/16 00:38:26;;;;;;;10.52;7.00;;;14.70;99.90;;;;;;5058086;28;20130;-69
2022/07/16 00:40:51;;;;;;;14.35;5.55;;;14.60;99.90;;;;;;5052470;28;20048;-68
2022/07/16 00:43:17;;;;;;;10.10;4.82;;;14.70;99.90;;;;;;5059042;28;20470;-68
2022/07/16 00:45:43;;;;;;;9.75;5.10;;;14.60;99.90;;;;;;5051696;28;21336;-68
2022/07/16 00:48:09;;;;;;;15.20;4.20;;;14.60;99.90;;;;;;5061006;28;20318;-68
2022/07/16 00:50:36;;;;;;;11.82;3.45;;;14.70;99.90;;;;;;5051241;28;20135;-67
2022/07/16 00:53:04;;;;;;;13.27;3.13;;;14.70;99.90;;;;;;5054729;28;20577;-68
2022/07/16 00:55:31;;;;;;;8.60;2.00;;;14.70;99.90;;;;;;5065050;28;20471;-69
2022/07/16 00:57:58;;;;;;;8.82;2.05;;;14.60;99.90;;;;;;5054520;28;20045;-69
2022/07/16 01:00:24;;;;;;;11.52;2.03;;;14.70;99.90;;;;;;5053694;28;20036;-69
2022/07/16 01:02:50;;;;;;;10.20;2.25;;;14.60;99.90;;;;;;5048099;28;20543;-67
2022/07/16 01:05:17;;;;;;;4.80;1.20;;;14.70;99.90;;;;;;5035275;28;20052;-68
2022/07/16 01:07:43;;;;;;;4.70;1.02;;;14.60;99.90;;;;;;5052775;28;20075;-69
2022/07/16 01:10:09;;;;;;;7.38;0.98;;;14.70;99.90;;;;;;5050427;28;20737;-68
2022/07/16 01:12:36;;;;;;;8.65;1.08;;;14.80;99.90;;;;;;5056391;28;20048;-69
2022/07/16 01:15:03;;;;;;;5.75;0.73;;;14.70;99.90;;;;;;5057048;28;20048;-70
2022/07/16 01:17:29;;;;;;;5.25;0.80;;;14.70;99.90;;;;;;5074824;28;20032;-69
2022/07/16 01:19:55;;;;;;;6.78;0.63;;;14.70;99.90;;;;;;5053172;28;20043;-68
2022/07/16 01:22:22;;;;;;;6.57;0.70;;;14.80;99.90;;;;;;5054358;28;20600;-69
2022/07/16 01:24:49;;;;;;;6.57;0.68;;;14.80;99.90;;;;;;5073594;28;20524;-71
2022/07/16 01:27:18;;;;;;;8.05;0.70;;;14.70;99.90;;;;;;5057914;28;20090;-69
2022/07/16 01:29:43;;;;;;;7.57;0.75;;;14.70;99.90;;;;;;5058457;28;20082;-69
2022/07/16 01:32:09;;;;;;;7.65;0.77;;;14.60;99.90;;;;;;5054983;28;20554;-69
2022/07/16 01:34:36;;;;;;;7.30;0.60;;;14.60;99.90;;;;;;5056420;28;20132;-69
2022/07/16 01:37:07;;;;;;;7.32;0.80;;;14.60;99.90;;;;;;5059329;28;20051;-71
2022/07/16 01:39:35;;;;;;;6.75;1.00;;;14.50;99.90;;;;;;5059433;28;20463;-70
2022/07/16 01:42:03;;;;;;;6.68;1.00;;;14.50;99.90;;;;;;5055164;28;20048;-70
2022/07/16 01:44:30;;;;;;;6.85;0.90;;;14.50;99.90;;;;;;5038799;28;20072;-69
2022/07/16 01:46:57;;;;;;;8.20;0.70;;;14.50;99.90;;;;;;5059270;28;20047;-70
2022/07/16 01:49:23;;;;;;;4.20;0.60;;;14.40;99.90;;;;;;5058282;28;20040;-68
2022/07/16 01:51:48;;;;;;;6.60;0.70;;;14.40;99.90;;;;;;5057051;28;21196;-69
2022/07/16 01:54:15;;;;;;;7.78;0.60;;;14.40;99.90;;;;;;5051738;28;20060;-68
2022/07/16 01:56:41;;;;;;;6.63;0.60;;;14.30;99.90;;;;;;5054396;28;20071;-69
2022/07/16 01:59:06;;;;;;;4.10;0.77;;;14.30;99.90;;;;;;5056168;28;20359;-70
2022/07/16 02:01:32;;;;;;;3.58;0.82;;;14.30;99.90;;;;;;5054123;28;20356;-68
2022/07/16 02:03:58;;;;;;;5.10;0.68;;;14.10;99.90;;;;;;5052480;28;20056;-69
2022/07/16 02:06:24;;;;;;;3.33;0.60;;;14.10;99.90;;;;;;5050554;28;20040;-68
2022/07/16 02:08:50;;;;;;;4.57;0.88;;;14.10;99.90;;;;;;5057351;28;20618;-68
2022/07/16 02:11:15;;;;;;;7.43;0.75;;;14.00;99.90;;;;;;5056647;28;20043;-68
2022/07/16 02:13:42;;;;;;;5.40;0.57;;;14.10;99.90;;;;;;5052959;28;20040;-68
2022/07/16 02:16:08;;;;;;;4.43;0.80;;;14.10;99.90;;;;;;5065042;28;20606;-67
2022/07/16 02:18:35;;;;;;;4.05;0.85;;;14.10;99.90;;;;;;5048256;28;20052;-68
2022/07/16 02:21:00;;;;;;;7.55;0.80;;;14.00;99.90;;;;;;5050669;28;20124;-70
2022/07/16 02:23:26;;;;;;;7.05;1.00;;;14.10;99.90;;;;;;5056335;28;20040;-69
2022/07/16 02:25:52;;;;;;;8.15;1.00;;;14.00;99.90;;;;;;5052140;28;20071;-67
2022/07/16 02:28:17;;;;;;;6.65;0.82;;;13.90;99.90;;;;;;5035810;28;20048;-68
2022/07/16 02:30:46;;;;;;;3.80;0.90;;;13.90;99.90;;;;;;5055639;28;20048;-69
2022/07/16 02:33:14;;;;;;;7.88;0.90;;;13.80;99.90;;;;;;5055867;28;20057;-69
2022/07/16 02:35:40;;;;;;;4.07;0.70;;;13.80;99.90;;;;;;5060291;28;20712;-70
2022/07/16 02:38:07;;;;;;;5.97;0.85;;;13.70;99.90;;;;;;5059055;28;20065;-67
2022/07/16 02:40:33;;;;;;;6.57;0.77;;;13.60;99.90;;;;;;5057331;28;20552;-68
2022/07/16 02:43:01;;;;;;;7.32;0.80;;;13.60;99.90;;;;;;5053282;28;20093;-69
2022/07/16 02:45:27;;;;;;;4.82;0.90;;;13.50;99.90;;;;;;5055506;28;20083;-69
2022/07/16 02:47:53;;;;;;;3.47;0.70;;;13.50;99.90;;;;;;5061983;28;20070;-68
2022/07/16 02:50:19;;;;;;;5.30;0.57;;;13.50;99.90;;;;;;5055876;28;20437;-68
2022/07/16 02:52:44;;;;;;;5.03;0.70;;;13.50;99.90;;;;;;5057022;28;20047;-69
2022/07/16 02:55:10;;;;;;;5.10;0.73;;;13.40;99.90;;;;;;5058605;28;20089;-68
2022/07/16 02:57:36;;;;;;;7.70;0.90;;;13.40;99.90;;;;;;5056824;28;20683;-68
2022/07/16 03:00:08;;;;;;;9.30;1.20;;;13.30;99.90;;;;;;5076161;28;20533;-69
2022/07/16 03:02:33;;;;;;;8.55;1.10;;;13.20;99.90;;;;;;5055586;28;20040;-69
2022/07/16 03:05:00;;;;;;;6.53;0.93;;;13.10;99.90;;;;;;5053456;28;20053;-69
2022/07/16 03:07:25;;;;;;;6.50;1.27;;;13.10;99.90;;;;;;5059095;28;20058;-68
2022/07/16 03:09:51;;;;;;;6.55;1.00;;;12.90;99.90;;;;;;5055155;28;20036;-69
2022/07/16 03:12:18;;;;;;;9.75;1.60;;;12.80;99.90;;;;;;5057932;28;20321;-70
2022/07/16 03:14:44;;;;;;;9.20;1.50;;;12.80;99.90;;;;;;5060890;28;20052;-69
2022/07/16 03:17:10;;;;;;;6.78;1.42;;;12.70;99.90;;;;;;5057080;28;20055;-70
2022/07/16 03:19:36;;;;;;;7.57;1.38;;;12.70;99.90;;;;;;5041234;28;20062;-68
2022/07/16 03:22:02;;;;;;;6.40;1.23;;;12.70;99.90;;;;;;5056757;28;20052;-68
2022/07/16 03:24:28;;;;;;;6.63;1.40;;;12.70;99.90;;;;;;5065889;28;20977;-69
2022/07/16 03:26:54;;;;;;;9.63;2.08;;;12.60;99.90;;;;;;5052030;28;20063;-68
2022/07/16 03:29:20;;;;;;;12.15;2.00;;;12.60;99.90;;;;;;5059899;28;20052;-68
2022/07/16 03:31:46;;;;;;;6.30;2.08;;;12.60;99.90;;;;;;5062968;28;20043;-70
2022/07/16 03:34:11;;;;;;;3.25;1.80;;;12.60;99.90;;;;;;5056857;28;20044;-70
2022/07/16 03:36:37;;;;;;;9.43;2.50;;;12.50;99.90;;;;;;5058612;28;20408;-70
2022/07/16 03:39:04;;;;;;;10.23;3.03;;;12.50;99.90;;;;;;5060060;28;20123;-68
2022/07/16 03:41:31;;;;;;;7.93;2.60;;;12.40;99.90;;;;;;5056558;28;20526;-68
2022/07/16 03:43:58;;;;;;;12.43;2.53;;;12.40;99.90;;;;;;5057113;28;20090;-69
2022/07/16 03:46:24;;;;;;;12.82;3.05;;;12.50;99.90;;;;;;5057356;28;20052;-69
2022/07/16 03:48:49;;;;;;;8.20;2.80;;;12.50;99.90;;;;;;5041780;28;20722;-68
2022/07/16 03:51:15;;;;;;;8.63;2.67;;;12.60;99.90;;;;;;5057712;28;20761;-69
2022/07/16 03:53:41;;;;;;;7.13;2.78;;;12.60;99.90;;;;;;5051620;28;20426;-69
2022/07/16 03:56:07;;;;;;;12.35;2.97;;;12.70;99.90;;;;;;5038879;28;20115;-68
2022/07/16 03:58:33;;;;;;;8.70;2.25;;;12.90;99.90;;;;;;5059458;28;20063;-68
2022/07/16 04:00:59;;;;;;;6.55;1.95;;;13.00;99.90;;;;;;5040268;28;20523;-71
2022/07/16 04:03:25;;;;;;;7.68;2.30;;;13.10;99.90;;;;;;5053078;28;20638;-70
2022/07/16 04:05:50;;;;;;;7.93;2.15;;;13.10;99.90;;;;;;5058651;28;20771;-70
2022/07/16 04:08:17;;;;;;;7.40;2.20;;;13.10;99.90;;;;;;5056993;28;20049;-70
2022/07/16 04:10:43;;;;;;;9.25;2.30;;;13.20;99.90;;;;;;5054636;28;20040;-71
2022/07/16 04:13:08;;;;;;;6.82;2.33;;;13.20;99.90;;;;;;5059263;28;20044;-69
2022/07/16 04:15:34;;;;;;;8.48;2.33;;;13.20;99.90;;;;;;5073095;28;20588;-69
2022/07/16 04:18:00;;;;;;;7.82;2.20;;;13.20;99.90;;;;;;5037719;28;20056;-70
2022/07/16 04:20:25;;;;;;;7.97;2.00;;;13.20;99.90;;;;;;5055751;28;20082;-68
2022/07/16 04:22:51;;;;;;;9.80;1.80;;;13.20;99.90;;;;;;5059717;28;20450;-70
2022/07/16 04:25:17;;;;;;;9.07;1.70;;;13.30;99.90;;;;;;5055032;28;20051;-69
2022/07/16 04:27:43;;;;;;;11.75;1.13;;;13.40;99.90;;;;;;5059015;28;20036;-69
2022/07/16 04:30:10;;;;;;;8.40;1.42;;;13.70;99.90;;;;;;5057474;28;20041;-69
2022/07/16 04:32:37;;;;;;;11.70;1.38;;;13.80;99.90;;;;;;5056151;28;20040;-69
2022/07/16 04:35:03;;;;;;;9.82;1.35;;;14.00;99.90;;;;;;5055484;28;20048;-69
2022/07/16 04:37:29;;;;;;;10.02;1.15;;;14.10;99.90;;;;;;5051049;28;20123;-69
2022/07/16 04:39:54;;;;;;;5.18;0.80;;;14.20;99.90;;;;;;5056310;28;20694;-69
2022/07/16 04:42:20;;;;;;;6.85;1.27;;;14.30;99.90;;;;;;5057644;28;20044;-71
2022/07/16 04:44:46;;;;;;;5.90;0.75;;;14.30;99.90;;;;;;5056384;28;20758;-69
2022/07/16 04:47:11;;;;;;;4.65;0.50;;;14.50;99.90;;;;;;5054838;28;20123;-68
2022/07/16 04:49:37;;;;;;;10.40;0.60;;;14.50;99.90;;;;;;5052073;28;20787;-69
2022/07/16 04:52:04;;;;;;;4.00;0.30;;;14.50;99.90;;;;;;5052860;28;20047;-69
2022/07/16 04:54:30;;;;;;;5.55;0.50;;;14.50;99.90;;;;;;5054343;28;20033;-69
2022/07/16 04:56:56;;;;;;;5.28;0.45;;;14.50;99.90;;;;;;5054224;28;20109;-68
2022/07/16 04:59:21;;;;;;;5.93;0.43;;;14.50;99.90;;;;;;5051351;28;20048;-69
2022/07/16 05:01:47;;;;;;;4.38;0.40;;;14.50;99.90;;;;;;5054220;28;20040;-68
2022/07/16 05:04:13;;;;;;;6.10;0.70;;;14.40;99.90;;;;;;5057359;28;20094;-69
2022/07/16 05:06:38;;;;;;;7.55;0.75;;;14.40;99.90;;;;;;5034383;28;20052;-69
2022/07/16 05:09:04;;;;;;;9.32;0.50;;;14.40;99.90;;;;;;5055098;28;20073;-68
2022/07/16 05:11:30;;;;;;;9.45;0.60;;;14.40;99.90;;;;;;5052469;28;20035;-71
2022/07/16 05:13:56;;;;;;;5.68;0.47;;;14.50;99.90;;;;;;5050095;28;20040;-70
2022/07/16 05:16:23;;;;;;;10.27;0.90;;;14.60;99.90;;;;;;5054395;28;20495;-68
2022/07/16 05:18:50;;;;;;;8.35;0.50;;;14.70;99.90;;;;;;5055291;28;21000;-69
2022/07/16 05:21:15;;;;;;;4.82;0.50;;;14.80;99.90;;;;;;5055071;28;20575;-69
2022/07/16 05:23:41;;;;;;;7.20;0.68;;;14.90;99.90;;;;;;5056875;28;20517;-69
2022/07/16 05:26:07;;;;;;;12.68;0.98;;;14.90;99.90;;;;;;5051975;28;20684;-69
2022/07/16 05:28:33;;;;;;;7.05;0.65;;;14.90;99.90;;;;;;5056970;28;20063;-69
2022/07/16 05:30:59;;;;;;;8.20;0.57;;;14.90;99.90;;;;;;5051476;28;20674;-70
2022/07/16 05:33:24;;;;;;;7.90;0.95;;;14.90;99.90;;;;;;5055014;28;20041;-70
2022/07/16 05:35:50;;;;;;;14.13;0.90;;;14.90;99.90;;;;;;5055155;28;20044;-68
2022/07/16 05:38:17;;;;;;;13.55;0.63;;;15.00;99.90;;;;;;5053332;28;20040;-69
2022/07/16 05:40:43;;;;;;;8.23;0.70;;;15.30;99.90;;;;;;5057544;28;20177;-70
2022/07/16 05:43:08;;;;;;;10.57;0.50;;;15.60;99.90;;;;;;5032365;28;20282;-70
2022/07/16 05:45:34;;;;;;;9.75;0.50;;;15.60;99.90;;;;;;5055486;28;20613;-70
2022/07/16 05:48:00;;;;;;;5.88;0.40;;;15.60;99.90;;;;;;5055190;28;20118;-70
2022/07/16 05:50:26;;;;;;;5.85;0.30;;;15.70;99.90;;;;;;5038135;28;20132;-68
2022/07/16 05:52:51;;;;;;;7.13;0.30;;;15.90;99.90;;;;;;5052199;28;20090;-69
2022/07/16 05:55:17;;;;;;;6.82;0.40;;;16.10;99.90;;;;;;5052042;28;20139;-69
2022/07/16 05:57:43;;;;;;;3.25;0.20;;;16.30;99.90;;;;;;5058575;28;20090;-69
2022/07/16 06:00:10;;;;;;;6.10;0.38;;;16.40;99.90;;;;;;5052105;28;20312;-69
2022/07/16 06:02:37;;;;;;;4.15;0.20;;;16.50;99.90;;;;;;5054492;28;20040;-69
2022/07/16 06:05:03;;;;;;;3.10;0.30;;;16.50;99.90;;;;;;5055630;28;20044;-71
2022/07/16 06:07:29;;;;;;;6.35;0.30;;;16.40;99.90;;;;;;5053907;28;20121;-69
2022/07/16 06:09:54;;;;;;;2.67;0.20;;;16.20;99.90;;;;;;5051953;28;20045;-68
2022/07/16 06:12:20;;;;;;;4.05;0.20;;;16.20;99.90;;;;;;5058192;28;20171;-69
2022/07/16 06:14:46;;;;;;;7.32;0.40;;;16.10;99.90;;;;;;5055117;28;20071;-69
2022/07/16 06:17:13;;;;;;;5.32;0.40;;;16.20;99.90;;;;;;5051552;28;20075;-69
2022/07/16 06:19:42;;;;;;;5.30;0.50;;;16.10;99.90;;;;;;5056422;28;20036;-70
2022/07/16 06:22:09;;;;;;;2.83;0.17;;;16.20;99.90;;;;;;5053567;28;20040;-70
2022/07/16 06:24:34;;;;;;;5.75;0.30;;;16.30;99.90;;;;;;5054219;28;20528;-69
2022/07/16 06:27:00;;;;;;;5.90;0.73;;;16.40;99.90;;;;;;5051764;28;20101;-68
2022/07/16 06:29:26;;;;;;;5.35;0.60;;;16.50;99.90;;;;;;5056275;28;20095;-70
2022/07/16 06:31:52;;;;;;;7.07;0.47;;;16.70;99.90;;;;;;5055106;28;20049;-68
2022/07/16 06:34:17;;;;;;;6.55;0.60;;;16.70;99.90;;;;;;5052994;28;20594;-69
2022/07/16 06:36:43;;;;;;;6.93;0.50;;;16.60;99.90;;;;;;5052601;28;20062;-69
2022/07/16 06:39:09;;;;;;;10.10;0.57;;;16.20;99.90;;;;;;5053301;28;20032;-70
2022/07/16 06:41:37;;;;;;;5.95;0.30;;;15.90;99.90;;;;;;5057859;28;20048;-68
2022/07/16 06:44:04;;;;;;;9.85;0.50;;;15.80;99.90;;;;;;5050107;28;20252;-68
2022/07/16 06:46:30;;;;;;;5.18;0.40;;;16.20;99.90;;;;;;5057904;28;20040;-69
2022/07/16 06:48:55;;;;;;;4.55;0.40;;;16.40;99.90;;;;;;5052646;28;20431;-68
2022/07/16 06:51:21;;;;;;;7.35;0.50;;;16.30;99.90;;;;;;5055493;28;20055;-67
2022/07/16 06:53:47;;;;;;;4.63;0.40;;;16.60;99.90;;;;;;5057195;28;20559;-69
2022/07/16 06:56:13;;;;;;;4.68;0.30;;;16.90;99.90;;;;;;5056392;28;20921;-70
2022/07/16 06:58:39;;;;;;;3.08;0.30;;;17.30;99.90;;;;;;5048294;28;20117;-70
2022/07/16 07:01:05;;;;;;;5.53;0.40;;;17.40;99.90;;;;;;5052952;28;20419;-68
2022/07/16 07:03:31;;;;;;;4.90;0.30;;;17.80;99.90;;;;;;5050155;28;20056;-68
2022/07/16 07:05:56;;;;;;;3.65;0.28;;;18.10;99.90;;;;;;5053890;28;20044;-70
2022/07/16 07:08:22;;;;;;;4.85;0.40;;;17.80;99.90;;;;;;5051972;28;20083;-67
2022/07/16 07:10:48;;;;;;;6.40;0.60;;;17.60;99.90;;;;;;5052601;28;20036;-69
2022/07/16 07:13:13;;;;;;;3.75;0.45;;;17.60;99.90;;;;;;5056293;28;20039;-68
2022/07/16 07:15:39;;;;;;;2.75;0.20;;;17.70;99.90;;;;;;5040012;28;21067;-69
2022/07/16 07:18:05;;;;;;;4.18;0.28;;;18.00;99.90;;;;;;5059287;28;20524;-69
2022/07/16 07:20:31;;;;;;;3.70;0.38;;;17.70;99.90;;;;;;5054546;28;20445;-68
2022/07/16 07:22:56;;;;;;;5.65;0.50;;;17.40;99.90;;;;;;5059646;28;20083;-70
2022/07/16 07:25:22;;;;;;;7.03;0.40;;;17.00;99.90;;;;;;5037704;28;20049;-70
2022/07/16 07:27:48;;;;;;;5.28;0.40;;;16.80;99.90;;;;;;5063177;28;20032;-68
2022/07/16 07:30:13;;;;;;;5.45;0.38;;;16.70;99.90;;;;;;5054425;28;20120;-68
2022/07/16 07:32:39;;;;;;;7.72;0.30;;;16.80;99.90;;;;;;5055224;28;20079;-69
2022/07/16 07:35:06;;;;;;;4.15;0.30;;;16.90;99.90;;;;;;5037219;28;20079;-68
2022/07/16 07:37:32;;;;;;;5.55;0.30;;;17.10;99.90;;;;;;5059208;28;20145;-69
2022/07/16 07:39:57;;;;;;;3.80;0.30;;;17.30;99.90;;;;;;5054685;28;20446;-69
2022/07/16 07:42:23;;;;;;;7.63;0.50;;;17.30;99.90;;;;;;5056530;28;20422;-68
2022/07/16 07:44:49;;;;;;;6.65;0.40;;;17.40;99.90;;;;;;5069634;28;20037;-70
2022/07/16 07:47:14;;;;;;;6.72;0.30;;;17.40;99.90;;;;;;5052292;28;20035;-69
2022/07/16 07:49:40;;;;;;;4.18;0.32;;;17.50;99.90;;;;;;5066931;28;20078;-69
2022/07/16 07:52:08;;;;;;;3.40;0.30;;;17.00;99.90;;;;;;5066807;28;20059;-68
2022/07/16 07:54:34;;;;;;;4.80;0.40;;;16.80;99.90;;;;;;5070597;28;20052;-69
2022/07/16 07:57:00;;;;;;;5.57;0.50;;;16.80;99.90;;;;;;5062536;28;20131;-69
2022/07/16 07:59:26;;;;;;;6.15;0.30;;;16.60;99.90;;;;;;5070581;28;20374;-68
2022/07/16 08:01:52;;;;;;;4.45;0.30;;;16.40;99.90;;;;;;5070542;28;20562;-69
2022/07/16 08:04:18;;;;;;;9.68;0.65;;;16.50;99.90;;;;;;5070820;28;20058;-70
2022/07/16 08:06:44;;;;;;;4.82;0.47;;;16.30;99.90;;;;;;5070598;28;20047;-68
2022/07/16 08:09:09;;;;;;;6.97;0.45;;;16.20;99.90;;;;;;5085973;28;20044;-69
2022/07/16 08:11:35;;;;;;;5.25;0.40;;;16.20;99.90;;;;;;5070461;28;20635;-70
2022/07/16 08:14:01;;;;;;;4.75;0.40;;;16.30;99.90;;;;;;5071140;28;20056;-69
2022/07/16 08:16:27;;;;;;;4.68;0.40;;;16.50;99.90;;;;;;5059058;28;20503;-69
2022/07/16 08:18:52;;;;;;;3.80;0.30;;;16.80;99.90;;;;;;5069925;28;20044;-69
2022/07/16 08:21:18;;;;;;;5.78;0.40;;;17.00;99.90;;;;;;5071147;28;20102;-69
2022/07/16 08:26:28;;;;;;;6.20;0.65;;;17.20;99.90;;;;;;5060047;28;20093;-69
2022/07/16 08:28:54;;;;;;;5.10;0.40;;;17.50;99.90;;;;;;5066388;28;20056;-69
2022/07/16 08:31:19;;;;;;;8.30;0.60;;;17.80;99.90;;;;;;5058833;28;20087;-70
2022/07/16 08:33:45;;;;;;;5.68;0.47;;;17.50;99.90;;;;;;5069971;28;20048;-69
2022/07/16 08:36:11;;;;;;;5.65;0.47;;;17.60;99.90;;;;;;5058876;28;20483;-69
2022/07/16 08:38:36;;;;;;;5.32;0.50;;;17.90;99.90;;;;;;5053240;28;20094;-69
2022/07/16 08:41:03;;;;;;;6.40;0.50;;;18.30;99.90;;;;;;5051554;28;20051;-71
2022/07/16 08:43:30;;;;;;;8.48;0.93;;;19.00;99.90;;;;;;5070470;28;20040;-69
2022/07/16 08:45:56;;;;;;;6.60;0.40;;;19.40;99.90;;;;;;5069826;28;20104;-68
2022/07/16 08:48:24;;;;;;;5.65;0.50;;;19.50;99.90;;;;;;5053640;28;20746;-70
2022/07/16 08:50:52;;;;;;;8.48;0.60;;;19.30;99.90;;;;;;5050776;28;20151;-68
2022/07/16 08:53:23;;;;;;;5.55;0.50;;;18.60;99.90;;;;;;5059533;28;20063;-69
2022/07/16 08:55:52;;;;;;;7.93;0.80;;;18.30;99.90;;;;;;5061393;28;20960;-68
2022/07/16 08:58:18;;;;;;;4.45;0.70;;;18.10;99.90;;;;;;5059200;28;20595;-69
2022/07/16 09:00:45;;;;;;;6.72;0.50;;;18.20;99.90;;;;;;5056015;28;20124;-69
2022/07/16 09:03:14;;;;;;;10.52;0.65;;;18.40;99.90;;;;;;5065078;28;20056;-70
2022/07/16 09:05:41;;;;;;;4.07;0.40;;;18.10;99.90;;;;;;5049924;28;20052;-72
2022/07/16 09:08:08;;;;;;;5.47;0.60;;;18.00;99.90;;;;;;5048856;28;20515;-70
2022/07/16 09:10:38;;;;;;;7.35;0.50;;;18.10;99.90;;;;;;5078559;28;20131;-71
2022/07/16 09:13:05;;;;;;;4.43;0.43;;;18.60;99.90;;;;;;5050189;28;20145;-69
2022/07/16 09:15:32;;;;;;;6.70;0.60;;;18.40;99.90;;;;;;5050316;28;20537;-68
2022/07/16 09:18:22;;;;;;;5.47;0.50;;;18.20;99.90;;;;;;5069271;28;20491;-72
2022/07/16 09:20:51;;;;;;;5.00;0.50;;;17.80;99.90;;;;;;5068494;28;20056;-69
2022/07/16 09:23:25;;;;;;;10.50;0.57;;;17.40;99.90;;;;;;5055379;28;20099;-71
2022/07/16 09:25:54;;;;;;;7.63;0.50;;;18.10;99.90;;;;;;5049915;28;20045;-70
2022/07/16 09:28:21;;;;;;;8.50;0.50;;;18.40;99.90;;;;;;5049315;28;20102;-71
2022/07/16 09:30:47;;;;;;;5.78;0.50;;;18.40;99.90;;;;;;5066026;28;20401;-69
2022/07/16 09:33:21;;;;;;;3.75;0.30;;;19.20;99.90;;;;;;5062972;28;20037;-69
2022/07/16 09:36:02;;;;;;;6.10;0.40;;;19.10;99.90;;;;;;5056801;28;20522;-70
2022/07/16 09:38:28;;;;;;;4.00;0.47;;;18.70;99.90;;;;;;5049042;28;20135;-70
2022/07/16 09:40:54;;;;;;;3.72;0.30;;;18.30;99.90;;;;;;5048389;28;20104;-69
2022/07/16 09:43:21;;;;;;;6.05;0.40;;;17.90;99.90;;;;;;5049743;28;20055;-69
2022/07/16 09:45:57;;;;;;;5.47;0.30;;;18.50;99.90;;;;;;5065724;28;20644;-70
2022/07/16 09:48:27;;;;;;;7.60;0.40;;;19.30;99.90;;;;;;5068576;28;20044;-71
2022/07/16 09:50:55;;;;;;;5.18;0.38;;;19.40;99.90;;;;;;5056511;28;20539;-70
2022/07/16 09:53:24;;;;;;;6.30;0.40;;;19.00;99.90;;;;;;5060983;28;20091;-70
2022/07/16 09:56:01;;;;;;;6.45;0.40;;;18.70;99.90;;;;;;5062903;28;20127;-71
2022/07/16 09:58:27;;;;;;;8.82;0.55;;;18.70;99.90;;;;;;5065641;28;20048;-71
2022/07/16 10:00:53;;;;;;;7.32;0.40;;;18.30;99.90;;;;;;5064042;28;20127;-69
2022/07/16 10:03:20;;;;;;;4.05;0.35;;;18.90;99.90;;;;;;5048894;28;20087;-69
2022/07/16 10:05:46;;;;;;;4.63;0.40;;;18.80;99.90;;;;;;5050592;28;20119;-69
2022/07/16 10:08:13;;;;;;;5.40;0.40;;;18.90;99.90;;;;;;5050272;28;20102;-69
2022/07/16 10:10:39;;;;;;;6.22;0.40;;;19.10;99.90;;;;;;5047984;28;20040;-69
2022/07/16 10:13:05;;;;;;;5.00;0.40;;;18.60;99.90;;;;;;5068310;28;20044;-71
2022/07/16 10:15:31;;;;;;;5.47;0.30;;;18.90;99.90;;;;;;5062737;28;20047;-69
2022/07/16 10:17:57;;;;;;;6.93;0.70;;;18.90;99.90;;;;;;5060133;28;20527;-69
2022/07/16 10:20:22;;;;;;;6.25;0.50;;;18.80;99.90;;;;;;5064766;28;20051;-71
2022/07/16 10:22:50;;;;;;;7.20;0.40;;;18.60;99.90;;;;;;5061334;28;20067;-69
2022/07/16 10:25:23;;;;;;;7.78;0.95;;;18.60;99.90;;;;;;5048842;28;20541;-70
2022/07/16 10:27:50;;;;;;;8.52;0.77;;;18.80;99.90;;;;;;5052621;28;20711;-68
2022/07/16 10:30:21;;;;;;;8.25;0.55;;;18.80;99.90;;;;;;5050455;28;20056;-69
2022/07/16 10:32:59;;;;;;;9.35;0.60;;;19.00;99.90;;;;;;5048123;28;20135;-68
2022/07/16 10:35:30;;;;;;;6.72;0.60;;;19.60;99.90;;;;;;5030791;28;20044;-71
2022/07/16 10:38:27;;;;;;;8.27;0.70;;;20.00;99.90;;;;;;5048543;28;20363;-69
2022/07/16 10:41:13;;;;;;;8.57;0.70;;;20.50;99.90;;;;;;5058728;28;20052;-70
2022/07/16 10:43:39;;;;;;;4.65;0.50;;;20.30;99.90;;;;;;5064139;28;20476;-69
2022/07/16 10:46:11;;;;;;;4.10;0.40;;;19.40;99.90;;;;;;5047382;28;20657;-69
2022/07/16 10:48:36;;;;;;;8.18;0.50;;;19.20;99.90;;;;;;5049072;28;20057;-71
2022/07/16 10:51:20;;;;;;;5.50;0.47;;;19.00;99.90;;;;;;5063802;28;20044;-71
2022/07/16 10:53:58;;;;;;;5.03;0.50;;;19.10;99.90;;;;;;5070145;28;20051;-70
2022/07/16 10:56:38;;;;;;;6.72;0.45;;;19.10;99.90;;;;;;5072345;28;20670;-70
2022/07/16 10:59:09;;;;;;;7.03;0.50;;;18.80;99.90;;;;;;5072215;28;20982;-69
2022/07/16 11:01:36;;;;;;;5.32;0.40;;;18.60;99.90;;;;;;5071067;28;20867;-69
2022/07/16 11:04:03;;;;;;;5.22;0.40;;;18.70;99.90;;;;;;5066815;28;20060;-69
2022/07/16 11:06:30;;;;;;;6.00;0.45;;;18.80;99.90;;;;;;5064254;28;20717;-71
2022/07/16 11:08:58;;;;;;;5.45;0.50;;;19.50;99.90;;;;;;5061697;28;20040;-72
2022/07/16 11:11:33;;;;;;;6.70;0.40;;;19.60;99.90;;;;;;5062230;28;20049;-70
2022/07/16 11:14:00;;;;;;;3.83;0.43;;;19.60;99.90;;;;;;5073692;28;20682;-70
2022/07/16 11:16:26;;;;;;;4.90;0.40;;;19.70;99.90;;;;;;5063501;28;20136;-69
2022/07/16 11:18:53;;;;;;;6.53;0.60;;;19.80;99.90;;;;;;5053100;28;20566;-72
2022/07/16 11:21:19;;;;;;;3.83;0.30;;;19.60;99.90;;;;;;5054877;28;20059;-70
2022/07/16 11:23:58;;;;;;;3.15;0.40;;;20.30;99.90;;;;;;5057080;28;20032;-71
2022/07/16 11:26:24;;;;;;;2.92;0.30;;;20.80;99.90;;;;;;5061212;28;20054;-71
2022/07/16 11:29:03;;;;;;;4.47;0.50;;;21.00;99.90;;;;;;5070625;28;20554;-70
2022/07/16 11:31:30;;;;;;;6.18;0.50;;;20.70;98.30;;;;;;5062066;28;20047;-69
2022/07/16 11:34:04;;;;;;;4.88;0.43;;;21.30;99.30;;;;;;5067447;28;20071;-69
2022/07/16 11:36:41;;;;;;;3.08;0.40;;;21.20;96.90;;;;;;5059505;28;20051;-69
2022/07/16 11:39:09;;;;;;;5.47;0.40;;;21.20;94.40;;;;;;5058439;28;20123;-71
2022/07/16 11:41:41;;;;;;;3.25;0.30;;;21.60;92.80;;;;;;5055861;28;20040;-71
2022/07/16 11:44:23;;;;;;;3.67;0.30;;;22.40;86.60;;;;;;5052256;28;20048;-70
2022/07/16 11:46:52;;;;;;;7.07;0.38;;;22.10;87.80;;;;;;5059662;28;20500;-71
2022/07/16 11:49:29;;;;;;;4.30;0.40;;;21.90;85.40;;;;;;5065125;28;20055;-70
2022/07/16 11:52:00;;;;;;;5.57;0.40;;;22.20;86.30;;;;;;5049327;28;20048;-69
2022/07/16 11:54:27;;;;;;;4.20;0.30;;;22.50;85.90;;;;;;5057546;28;20102;-71
2022/07/16 11:56:55;;;;;;;9.40;3.80;;;22.10;79.20;;;;;;5052859;28;20061;-70
2022/07/16 11:59:32;;;;;;;2.60;0.40;;;21.70;80.80;;;;;;5062293;28;20056;-70
2022/07/16 12:02:13;;;;;;;4.68;1.02;;;22.00;83.20;;;;;;5061830;28;20039;-71
2022/07/16 12:04:59;;;;;;;9.27;5.95;;;22.50;81.40;;;;;;5055003;28;20071;-69
2022/07/16 12:07:28;;;;;;;10.52;5.03;;;22.30;77.00;;;;;;5056137;28;20443;-71
2022/07/16 12:10:04;;;;;;;4.65;0.70;;;23.10;80.10;;;;;;5049250;28;20919;-71
2022/07/16 12:12:36;;;;;;;4.30;1.13;;;22.40;77.50;;;;;;5059379;28;20036;-70
2022/07/16 12:15:07;;;;;;;4.60;0.30;;;22.90;83.20;;;;;;5060533;28;20059;-70
2022/07/16 12:17:38;;;;;;;4.85;0.50;;;22.40;76.60;;;;;;5053995;28;20197;-73
2022/07/16 12:20:09;;;;;;;4.68;0.70;;;21.70;81.30;;;;;;5057479;28;20400;-69
2022/07/16 12:22:53;;;;;;;6.17;0.40;;;21.50;85.20;;;;;;5060600;28;20039;-69
2022/07/16 12:25:28;;;;;;;4.65;0.60;;;21.10;88.90;;;;;;5056437;28;20996;-73
2022/07/16 12:27:58;;;;;;;5.45;0.57;;;20.30;89.50;;;;;;5062681;28;20104;-70
2022/07/16 12:30:49;;;;;;;4.15;0.40;;;20.30;94.10;;;;;;5062751;28;20404;-70
2022/07/16 12:33:24;;;;;;;3.90;0.68;;;20.30;96.40;;;;;;5050615;28;20048;-69
2022/07/16 12:35:51;;;;;;;3.45;0.98;;;20.40;94.70;;;;;;5052126;28;20048;-69
2022/07/16 12:38:52;;;;;;;4.18;0.40;;;21.10;93.30;;;;;;5052551;28;20646;-71
2022/07/16 12:41:19;;;;;;;4.45;0.50;;;20.80;92.70;;;;;;4985719;28;20611;-72
2022/07/16 12:43:53;;;;;;;3.13;0.30;;;21.30;94.20;;;;;;5012451;28;20048;-69
2022/07/16 12:46:21;;;;;;;6.60;0.50;;;20.60;92.10;;;;;;5015157;28;20148;-72
2022/07/16 12:48:48;;;;;;;3.75;0.50;;;20.80;94.20;;;;;;5020299;28;20119;-70
2022/07/16 12:51:16;;;;;;;5.90;0.77;;;20.90;92.50;;;;;;5014579;28;20084;-72
2022/07/16 12:53:42;;;;;;;2.90;0.40;;;21.50;91.20;;;;;;5018285;28;20124;-73